Wetterdaten: Mai 2007
Datum Temp. A. Feuchte A. Luftdruck Regen Wind Richtung Taupunkt Windchill Windben
01.05.2007 12,8 C 41 % 1013 hPa 0,0 l/m 3,7 km/h NO -0,9 C 12,6 C 2,7 km/h
02.05.2007 12,6 C 40 % 1012 hPa 0,0 l/m 4,8 km/h O -1,1 C 12,5 C 4,0 km/h
03.05.2007 15,1 C 47 % 1010 hPa 0,0 l/m 3,4 km/h O 3,0 C 15,1 C 2,8 km/h
04.05.2007 17,0 C 51 % 1005 hPa 0,0 l/m 3,7 km/h O 6,3 C 16,9 C 4,3 km/h
05.05.2007 12,8 C 77 % 1008 hPa 4,1 l/m 4,8 km/h NO 8,7 C 12,5 C 4,0 km/h
06.05.2007 15,1 C 63 % 1012 hPa 0,0 l/m 1,0 km/h N-NO 7,6 C 15,1 C 0,8 km/h
07.05.2007 14,9 C 67 % 1013 hPa 0,0 l/m 2,9 km/h W-NW 8,7 C 14,9 C 2,4 km/h
08.05.2007 12,7 C 78 % 1011 hPa 12,9 l/m 4,8 km/h W-NW 8,4 C 11,9 C 7,3 km/h
09.05.2007 12,1 C 87 % 1014 hPa 26,9 l/m 2,0 km/h W-NW 10,1 C 12,1 C 1,7 km/h
10.05.2007 17,2 C 61 % 1011 hPa 0,5 l/m 5,3 km/h W-NW 9,2 C 17,1 C 4,4 km/h
11.05.2007 15,9 C 56 % 1008 hPa 0,0 l/m 4,0 km/h W-NW 7,1 C 15,6 C 4,6 km/h
12.05.2007 15,4 C 62 % 1011 hPa 0,5 l/m 5,9 km/h W-NW 7,6 C 14,4 C 7,3 km/h
13.05.2007 19,9 C 58 % 1008 hPa 0,5 l/m 1,4 km/h O-NO 10,7 C 19,9 C 1,0 km/h
14.05.2007 16,0 C 75 % 1008 hPa 9,8 l/m 2,0 km/h W-NW 10,8 C 16,0 C 1,5 km/h
15.05.2007 10,8 C 85 % 1014 hPa 2,1 l/m 4,2 km/h W-NW 8,3 C 10,4 C 3,0 km/h
16.05.2007 12,2 C 75 % 1011 hPa 3,1 l/m 1,1 km/h W-NW 7,3 C 12,2 C 0,8 km/h
17.05.2007 9,7 C 86 % 1010 hPa 5,7 l/m 2,8 km/h W-NW 7,5 C 9,6 C 2,0 km/h
18.05.2007 12,5 C 70 % 1016 hPa 0,0 l/m 0,8 km/h NO 6,6 C 12,5 C 0,6 km/h
19.05.2007 17,9 C 63 % 1014 hPa 0,0 l/m 2,7 km/h O-NO 10,0 C 17,7 C 1,9 km/h
20.05.2007 20,2 C 59 % 1012 hPa 0,0 l/m 3,2 km/h O 11,1 C 20,0 C 2,7 km/h
21.05.2007 23,1 C 58 % 1014 hPa 0,0 l/m 2,3 km/h W-NW 13,4 C 23,1 C 1,6 km/h
22.05.2007 22,5 C 60 % 1016 hPa 0,0 l/m 3,4 km/h W-NW 13,8 C 22,5 C 2,4 km/h
23.05.2007 22,0 C 66 % 1016 hPa 2,1 l/m 3,3 km/h N-NO 14,8 C 21,9 C 2,3 km/h
24.05.2007 23,1 C 58 % 1013 hPa 0,0 l/m 2,2 km/h O 13,8 C 23,0 C 1,5 km/h
25.05.2007 25,3 C 53 % 1006 hPa 0,0 l/m 1,8 km/h W-NW 14,3 C 25,3 C 1,3 km/h
26.05.2007 20,0 C 71 % 1002 hPa 14,0 l/m 3,5 km/h NO 14,4 C 19,9 C 2,5 km/h
27.05.2007 19,1 C 70 % 997 hPa 2,6 l/m 0,5 km/h W-NW 13,1 C 19,1 C 0,3 km/h
28.05.2007 11,4 C 88 % 996 hPa 6,7 l/m 4,5 km/h W-NW 9,6 C 11,3 C 3,2 km/h
29.05.2007 9,5 C 92 % 1001 hPa 42,5 l/m 8,6 km/h W-NW 8,2 C 8,1 C 7,1 km/h
30.05.2007 12,8 C 64 % 1013 hPa 0,5 l/m 2,0 km/h W-NW 5,5 C 12,7 C 1,4 km/h
31.05.2007 15,0 C 61 % 1011 hPa 0,0 l/m 1,9 km/h O 7,1 C 15,0 C 1,3 km/h
Min-Datum 18.05.07 02.05.07 28.05.07 16 Tage 01.05.07 - 02.05.07 29.05.07 01.05.07
Min-Zeit 05:20 16:50 08:40 - 00:00 - 02:05 08:20 00:00
Minimum 3,1 C 26 % 994 hPa - 0,0 km/h - -6,1 C 2,7 C 0,0 km/h
Max-Datum 25.05.07 18.05.07 18.05.07 29.05.07 11.05.07 - 25.05.07 25.05.07 10.05.07
Max-Zeit 14:30 06:50 09:10 00:15 15:55 - 11:00 14:30 12:00
Maximum 33,3 C 93 % 1020 hPa 42,5 l/m 26,4 km/h
W-NW
- 18,4 C 33,3 C 43,2 km/h
W-NW
Durchschnitt 16,0 C 66 % 1010 hPa #134,7 l/m 3,2 km/h W-NW 8,9 C 15,8 C 2,7 km/h

Durchschnitt Minimum Temp.9,8 C
Durchschnitt Maximum Temp.22,1 C